createdAt,value
2018-05-12T00:01:07.908Z,17.33
2018-05-12T00:03:37.602Z,16.97
2018-05-12T00:06:07.347Z,18.00
2018-05-12T00:08:37.293Z,25.37
2018-05-12T00:11:07.023Z,23.60
2018-05-12T00:13:36.720Z,24.23
2018-05-12T00:16:06.636Z,21.13
2018-05-12T00:18:36.396Z,19.40
2018-05-12T00:21:06.158Z,18.37
2018-05-12T00:23:35.885Z,17.67
2018-05-12T00:26:05.679Z,17.43
2018-05-12T00:28:35.382Z,16.67
2018-05-12T00:31:05.249Z,16.53
2018-05-12T00:33:35.014Z,15.87
2018-05-12T00:36:04.708Z,14.90
2018-05-12T00:38:35.067Z,13.67
2018-05-12T00:41:04.762Z,14.13
2018-05-12T00:43:34.521Z,12.13
2018-05-12T00:46:04.425Z,12.00
2018-05-12T00:48:34.161Z,11.40
2018-05-12T00:51:03.903Z,13.32
2018-05-12T00:53:33.598Z,12.57
2018-05-12T00:56:03.333Z,12.37
2018-05-12T00:58:33.052Z,16.60
2018-05-12T01:01:02.747Z,17.80
2018-05-12T01:03:32.466Z,18.33
2018-05-12T01:06:02.209Z,18.70
2018-05-12T01:08:31.993Z,18.80
2018-05-12T01:11:01.777Z,18.17
2018-05-12T01:13:31.488Z,18.57
2018-05-12T01:16:01.832Z,18.90
2018-05-12T01:18:31.645Z,19.80
2018-05-12T01:21:02.576Z,20.63
2018-05-12T01:23:32.455Z,20.80
2018-05-12T01:26:02.189Z,23.17
2018-05-12T01:28:31.877Z,21.23
2018-05-12T01:31:01.568Z,22.00
2018-05-12T01:33:31.374Z,23.13
2018-05-12T01:36:01.075Z,22.90
2018-05-12T01:38:31.134Z,25.83
2018-05-12T01:41:01.449Z,24.60
2018-05-12T01:43:31.936Z,24.73
2018-05-12T01:46:01.656Z,24.83
2018-05-12T01:48:31.772Z,23.47
2018-05-12T01:51:01.503Z,25.20
2018-05-12T01:53:31.255Z,17.87
2018-05-12T01:56:01.432Z,18.90
2018-05-12T01:58:31.162Z,19.13
2018-05-12T02:01:02.103Z,18.50
2018-05-12T02:03:31.816Z,19.80
2018-05-12T02:06:01.774Z,19.87
2018-05-12T02:08:31.442Z,18.80
2018-05-12T02:11:01.931Z,19.17
2018-05-12T02:13:31.657Z,17.60
2018-05-12T02:16:01.356Z,17.10
2018-05-12T02:18:31.103Z,17.97
2018-05-12T02:21:00.790Z,18.53
2018-05-12T02:23:30.525Z,16.60
2018-05-12T02:26:00.327Z,17.83
2018-05-12T02:28:30.044Z,17.03
2018-05-12T02:30:59.799Z,17.43
2018-05-12T02:33:29.821Z,16.07
2018-05-12T02:35:59.553Z,17.27
2018-05-12T02:38:29.310Z,16.20
2018-05-12T02:40:59.001Z,16.27
2018-05-12T02:43:29.017Z,16.07
2018-05-12T02:45:58.872Z,16.60
2018-05-12T02:48:28.664Z,15.67
2018-05-12T02:50:58.406Z,15.67
2018-05-12T02:53:28.896Z,16.17
2018-05-12T02:55:58.804Z,15.70
2018-05-12T02:58:28.569Z,15.30
2018-05-12T03:00:58.685Z,15.63
2018-05-12T03:03:29.221Z,15.10
2018-05-12T03:05:59.397Z,14.63
2018-05-12T03:08:29.108Z,13.87
2018-05-12T03:10:59.205Z,14.80
2018-05-12T03:13:28.947Z,16.70
2018-05-12T03:15:58.632Z,14.23
2018-05-12T03:18:29.149Z,16.30
2018-05-12T03:20:59.293Z,16.43
2018-05-12T03:23:29.020Z,17.50
2018-05-12T03:25:59.668Z,17.00
2018-05-12T03:28:29.388Z,16.33
2018-05-12T03:30:59.074Z,15.43
2018-05-12T03:33:28.803Z,14.70
2018-05-12T03:35:58.621Z,14.00
2018-05-12T03:38:28.738Z,12.77
2018-05-12T03:40:58.444Z,13.70
2018-05-12T03:43:28.155Z,12.67
2018-05-12T03:45:57.825Z,11.93
2018-05-12T03:48:27.555Z,12.77
2018-05-12T03:50:57.261Z,12.23
2018-05-12T03:53:26.992Z,13.03
2018-05-12T03:55:56.741Z,13.93
2018-05-12T03:58:26.435Z,13.67
2018-05-12T04:00:56.180Z,12.50
2018-05-12T04:03:25.897Z,13.93
2018-05-12T04:06:07.406Z,15.07
2018-05-12T04:08:48.748Z,15.07
2018-05-12T04:11:30.313Z,16.23
2018-05-12T04:14:00.019Z,16.20
2018-05-12T04:16:29.708Z,15.90
2018-05-12T04:18:59.442Z,16.33
2018-05-12T04:21:29.304Z,15.20
2018-05-12T04:23:59.075Z,14.43
2018-05-12T04:26:28.832Z,14.33
2018-05-12T04:28:58.603Z,18.90
2018-05-12T04:31:28.460Z,18.27
2018-05-12T04:33:58.260Z,18.17
2018-05-12T04:36:28.993Z,15.57
2018-05-12T04:38:58.763Z,15.87
2018-05-12T04:41:28.629Z,15.97
2018-05-12T04:43:58.384Z,14.93
2018-05-12T04:46:28.246Z,15.03
2018-05-12T04:48:58.068Z,14.23
2018-05-12T04:51:27.883Z,14.13
2018-05-12T04:53:57.787Z,14.93
2018-05-12T04:56:27.701Z,14.13
2018-05-12T04:58:57.521Z,14.60
2018-05-12T05:01:27.326Z,15.53
2018-05-12T05:03:57.141Z,16.57
2018-05-12T05:06:26.955Z,18.20
2018-05-12T05:08:56.778Z,16.83
2018-05-12T05:11:26.522Z,18.03
2018-05-12T05:13:56.243Z,17.30
2018-05-12T05:16:26.004Z,16.30
2018-05-12T05:18:55.679Z,16.40
2018-05-12T05:21:25.380Z,14.70
2018-05-12T05:23:55.089Z,25.23
2018-05-12T05:26:24.766Z,14.60
2018-05-12T05:28:54.471Z,14.80
2018-05-12T05:31:24.210Z,15.83
2018-05-12T05:33:53.898Z,19.13
2018-05-12T05:36:23.616Z,13.17
2018-05-12T05:38:53.367Z,13.17
2018-05-12T05:41:23.168Z,14.60
2018-05-12T05:43:52.903Z,13.30
2018-05-12T05:46:22.635Z,11.73
2018-05-12T05:48:52.317Z,13.70
2018-05-12T05:51:22.048Z,13.03
2018-05-12T05:53:51.744Z,13.67
2018-05-12T05:56:23.131Z,13.57
2018-05-12T05:58:52.913Z,12.40
2018-05-12T06:01:22.589Z,12.60
2018-05-12T06:03:52.359Z,11.20
2018-05-12T06:06:22.051Z,12.37
2018-05-12T06:08:51.759Z,11.60
2018-05-12T06:11:21.485Z,11.70
2018-05-12T06:13:51.251Z,11.73
2018-05-12T06:16:20.915Z,12.37
2018-05-12T06:18:50.617Z,11.50
2018-05-12T06:21:20.284Z,12.33
2018-05-12T06:23:49.980Z,11.97
2018-05-12T06:26:19.684Z,11.80
2018-05-12T06:28:49.408Z,12.07
2018-05-12T06:31:19.218Z,12.70
2018-05-12T06:33:48.934Z,13.40
2018-05-12T06:36:18.654Z,13.00
2018-05-12T06:38:48.402Z,12.80
2018-05-12T06:41:18.097Z,12.97
2018-05-12T06:43:47.773Z,12.70
2018-05-12T06:46:17.492Z,13.47
2018-05-12T06:48:47.185Z,13.07
2018-05-12T06:51:16.905Z,13.10
2018-05-12T06:53:46.592Z,11.53
2018-05-12T06:56:16.302Z,13.70
2018-05-12T06:58:46.077Z,14.37
2018-05-12T07:01:15.778Z,12.83
2018-05-12T07:03:45.474Z,12.87
2018-05-12T07:06:15.311Z,13.03
2018-05-12T07:08:45.017Z,13.30
2018-05-12T07:11:14.733Z,13.63
2018-05-12T07:13:44.485Z,13.03
2018-05-12T07:16:14.165Z,13.10
2018-05-12T07:18:43.938Z,13.47
2018-05-12T07:21:13.617Z,13.13
2018-05-12T07:23:43.313Z,12.47
2018-05-12T07:26:13.093Z,12.43
2018-05-12T07:28:42.798Z,11.83
2018-05-12T07:31:12.475Z,11.90
2018-05-12T07:33:42.181Z,12.17
2018-05-12T07:36:11.867Z,13.60
2018-05-12T07:38:41.588Z,11.77
2018-05-12T07:41:11.312Z,11.33
2018-05-12T07:43:41.009Z,12.60
2018-05-12T07:46:10.760Z,13.37
2018-05-12T07:48:40.465Z,12.20
2018-05-12T07:51:10.161Z,13.20
2018-05-12T07:53:39.933Z,12.37
2018-05-12T07:56:09.756Z,13.63
2018-05-12T07:58:39.637Z,14.93
2018-05-12T08:01:09.449Z,13.37
2018-05-12T08:03:39.152Z,12.23
2018-05-12T08:06:08.919Z,11.53
2018-05-12T08:08:38.586Z,11.90
2018-05-12T08:11:08.330Z,12.90
2018-05-12T08:13:38.153Z,11.57
2018-05-12T08:16:07.896Z,12.73
2018-05-12T08:18:37.670Z,12.13
2018-05-12T08:21:07.369Z,9.47
2018-05-12T08:23:37.085Z,13.30
2018-05-12T08:26:06.862Z,12.43
2018-05-12T08:28:36.607Z,12.17
2018-05-12T08:31:06.320Z,7.60
2018-05-12T08:33:36.057Z,8.87
2018-05-12T08:36:05.781Z,9.80
2018-05-12T08:38:35.540Z,9.03
2018-05-12T08:41:05.234Z,11.13
2018-05-12T08:43:34.940Z,8.10
2018-05-12T08:46:04.704Z,7.10
2018-05-12T08:48:34.421Z,6.20
2018-05-12T08:51:04.134Z,7.47
2018-05-12T08:53:33.886Z,6.60
2018-05-12T08:56:03.570Z,6.37
2018-05-12T08:58:33.287Z,5.63
2018-05-12T09:01:03.018Z,6.10
2018-05-12T09:03:32.727Z,5.90
2018-05-12T09:06:02.471Z,4.80
2018-05-12T09:08:32.198Z,5.17
2018-05-12T09:11:01.917Z,5.93
2018-05-12T09:13:31.676Z,4.87
2018-05-12T09:16:01.437Z,5.10
2018-05-12T09:18:31.143Z,5.30
2018-05-12T09:21:00.882Z,5.97
2018-05-12T09:23:30.586Z,6.83
2018-05-12T09:26:00.317Z,5.33
2018-05-12T09:28:30.065Z,6.60
2018-05-12T09:30:59.815Z,7.07
2018-05-12T09:33:29.559Z,7.37
2018-05-12T09:36:01.069Z,9.17
2018-05-12T09:38:31.038Z,8.77
2018-05-12T09:41:00.744Z,7.33
2018-05-12T09:43:30.547Z,7.87
2018-05-12T09:46:00.250Z,7.20
2018-05-12T09:48:29.941Z,7.17
2018-05-12T09:50:59.725Z,7.60
2018-05-12T09:53:29.464Z,7.37
2018-05-12T09:55:59.187Z,6.13
2018-05-12T09:58:28.908Z,6.73
2018-05-12T10:00:58.590Z,6.13
2018-05-12T10:03:28.421Z,5.93
2018-05-12T10:05:58.156Z,6.10
2018-05-12T10:08:27.912Z,5.67
2018-05-12T10:10:57.741Z,5.53
2018-05-12T10:13:27.432Z,5.27
2018-05-12T10:15:57.152Z,5.70
2018-05-12T10:18:26.863Z,5.10
2018-05-12T10:20:56.591Z,5.43
2018-05-12T10:23:26.368Z,5.80
2018-05-12T10:25:56.116Z,5.30
2018-05-12T10:28:25.855Z,5.03
2018-05-12T10:30:55.568Z,4.83
2018-05-12T10:33:25.280Z,4.80
2018-05-12T10:35:54.980Z,4.33
2018-05-12T10:38:24.808Z,4.73
2018-05-12T10:40:54.496Z,5.03
2018-05-12T10:43:24.236Z,5.50
2018-05-12T10:45:53.923Z,5.13
2018-05-12T10:48:23.620Z,5.03
2018-05-12T10:50:53.341Z,4.47
2018-05-12T10:53:23.076Z,4.83
2018-05-12T10:55:52.778Z,4.53
2018-05-12T10:58:22.546Z,4.40
2018-05-12T11:00:52.258Z,4.33
2018-05-12T11:03:22.020Z,4.73
2018-05-12T11:05:51.712Z,4.50
2018-05-12T11:08:21.384Z,4.53
2018-05-12T11:10:51.122Z,4.10
2018-05-12T11:13:20.824Z,4.57
2018-05-12T11:15:50.539Z,4.57
2018-05-12T11:18:20.296Z,4.40
2018-05-12T11:20:50.003Z,4.20
2018-05-12T11:23:19.753Z,3.87
2018-05-12T11:25:49.514Z,4.23
2018-05-12T11:28:19.220Z,6.17
2018-05-12T11:30:48.977Z,4.10
2018-05-12T11:33:18.768Z,3.90
2018-05-12T11:35:48.468Z,4.53
2018-05-12T11:38:18.238Z,4.70
2018-05-12T11:40:47.973Z,4.40
2018-05-12T11:43:17.731Z,4.00
2018-05-12T11:45:47.468Z,4.43
2018-05-12T11:48:17.165Z,4.50
2018-05-12T11:50:46.938Z,4.23
2018-05-12T11:53:16.652Z,4.13
2018-05-12T11:55:46.364Z,4.80
2018-05-12T11:58:16.113Z,4.07
2018-05-12T12:00:45.819Z,4.70
2018-05-12T12:03:15.525Z,4.83
2018-05-12T12:05:45.265Z,4.43
2018-05-12T12:08:14.983Z,4.70
2018-05-12T12:10:45.104Z,4.43
2018-05-12T12:13:14.840Z,4.67
2018-05-12T12:15:44.599Z,4.57
2018-05-12T12:18:14.357Z,4.40
2018-05-12T12:20:44.108Z,4.60
2018-05-12T12:23:13.825Z,4.50
2018-05-12T12:25:43.500Z,4.07
2018-05-12T12:28:13.189Z,4.50
2018-05-12T12:30:42.930Z,4.10
2018-05-12T12:33:12.610Z,4.57
2018-05-12T12:35:42.293Z,4.17
2018-05-12T12:38:12.011Z,4.03
2018-05-12T12:40:41.687Z,4.33
2018-05-12T12:43:11.369Z,4.00
2018-05-12T12:45:41.079Z,4.10
2018-05-12T12:48:10.764Z,4.23
2018-05-12T12:50:40.437Z,8.03
2018-05-12T12:53:10.197Z,10.50
2018-05-12T12:55:39.861Z,4.00
2018-05-12T12:58:09.576Z,3.90
2018-05-12T13:00:39.315Z,3.90
2018-05-12T13:03:08.977Z,4.33
2018-05-12T13:05:38.729Z,4.70
2018-05-12T13:08:08.400Z,4.33
2018-05-12T13:10:38.102Z,4.43
2018-05-12T13:13:07.807Z,4.40
2018-05-12T13:15:37.512Z,4.27
2018-05-12T13:18:07.197Z,4.60
2018-05-12T13:20:36.956Z,4.00
2018-05-12T13:23:06.635Z,4.73
2018-05-12T13:25:36.309Z,3.83
2018-05-12T13:28:06.057Z,4.50
2018-05-12T13:30:35.732Z,4.40
2018-05-12T13:33:05.475Z,4.20
2018-05-12T13:35:35.167Z,3.67
2018-05-12T13:38:04.866Z,4.23
2018-05-12T13:40:34.598Z,3.93
2018-05-12T13:43:04.306Z,4.13
2018-05-12T13:45:34.006Z,4.07
2018-05-12T13:48:03.751Z,4.07
2018-05-12T13:53:14.328Z,4.50
2018-05-12T13:55:44.163Z,4.47
2018-05-12T13:58:13.928Z,4.30
2018-05-12T14:00:43.708Z,4.13
2018-05-12T14:03:13.555Z,4.23
2018-05-12T14:05:43.335Z,4.73
2018-05-12T14:08:13.029Z,4.50
2018-05-12T14:10:42.707Z,4.20
2018-05-12T14:13:12.415Z,5.07
2018-05-12T14:15:42.114Z,5.87
2018-05-12T14:18:11.841Z,22.37
2018-05-12T14:20:41.562Z,4.90
2018-05-12T14:23:11.251Z,9.73
2018-05-12T14:25:40.908Z,4.23
2018-05-12T14:28:10.626Z,4.90
2018-05-12T14:30:40.296Z,4.60
2018-05-12T14:33:09.984Z,5.03
2018-05-12T14:35:39.693Z,4.37
2018-05-12T14:38:09.380Z,4.50
2018-05-12T14:40:39.066Z,4.40
2018-05-12T14:43:08.808Z,4.33
2018-05-12T14:45:38.496Z,4.17
2018-05-12T14:48:08.250Z,3.80
2018-05-12T14:50:38.004Z,4.37
2018-05-12T14:53:07.711Z,4.33
2018-05-12T14:55:37.461Z,4.30
2018-05-12T14:58:07.146Z,3.97
2018-05-12T15:00:36.826Z,3.90
2018-05-12T15:03:06.558Z,4.60
2018-05-12T15:05:36.245Z,4.00
2018-05-12T15:08:05.912Z,4.47
2018-05-12T15:10:35.629Z,4.30
2018-05-12T15:13:05.319Z,4.60
2018-05-12T15:15:35.057Z,4.70
2018-05-12T15:18:04.751Z,4.60
2018-05-12T15:20:34.425Z,4.33
2018-05-12T15:23:04.237Z,4.83
2018-05-12T15:25:33.941Z,4.73
2018-05-12T15:28:03.667Z,4.43
2018-05-12T15:30:33.432Z,4.53
2018-05-12T15:33:03.161Z,4.73
2018-05-12T15:35:32.830Z,4.63
2018-05-12T15:38:02.561Z,4.37
2018-05-12T15:40:32.232Z,4.10
2018-05-12T15:43:01.952Z,4.70
2018-05-12T15:45:31.664Z,4.17
2018-05-12T15:48:01.362Z,4.43
2018-05-12T15:50:31.223Z,4.20
2018-05-12T15:53:00.959Z,4.57
2018-05-12T15:55:30.650Z,4.53
2018-05-12T15:58:00.405Z,4.80
2018-05-12T16:00:30.086Z,4.60
2018-05-12T16:02:59.943Z,4.27
2018-05-12T16:05:29.585Z,4.27
2018-05-12T16:07:59.286Z,4.43
2018-05-12T16:10:29.028Z,4.47
2018-05-12T16:12:58.726Z,4.30
2018-05-12T16:15:28.448Z,4.10
2018-05-12T16:17:58.249Z,4.10
2018-05-12T16:20:27.991Z,4.80
2018-05-12T16:22:57.697Z,4.20
2018-05-12T16:25:27.419Z,4.50
2018-05-12T16:27:57.154Z,4.50
2018-05-12T16:30:26.891Z,4.73
2018-05-12T16:32:56.649Z,4.40
2018-05-12T16:35:26.424Z,3.70
2018-05-12T16:37:56.164Z,4.13
2018-05-12T16:40:25.843Z,4.27
2018-05-12T16:42:55.522Z,4.97
2018-05-12T16:45:25.247Z,4.97
2018-05-12T16:47:54.937Z,5.97
2018-05-12T16:50:24.698Z,5.20
2018-05-12T16:52:54.418Z,5.27
2018-05-12T16:55:24.116Z,6.03
2018-05-12T16:57:53.838Z,6.00
2018-05-12T17:00:23.552Z,5.63
2018-05-12T17:02:53.238Z,6.70
2018-05-12T17:05:22.984Z,7.70
2018-05-12T17:07:52.681Z,6.70
2018-05-12T17:10:22.388Z,7.10
2018-05-12T17:12:52.177Z,7.90
2018-05-12T17:17:49.960Z,7.93
2018-05-12T17:20:19.790Z,7.40
2018-05-12T17:22:49.539Z,7.90
2018-05-12T17:25:19.212Z,7.90
2018-05-12T17:27:48.926Z,8.07
2018-05-12T17:30:18.627Z,7.60
2018-05-12T17:32:48.312Z,7.43
2018-05-12T17:35:18.054Z,8.00
2018-05-12T17:37:47.758Z,7.33
2018-05-12T17:40:17.502Z,6.87
2018-05-12T17:42:47.210Z,7.63
2018-05-12T17:45:16.908Z,8.30
2018-05-12T17:47:46.660Z,8.43
2018-05-12T17:50:16.405Z,7.73
2018-05-12T17:52:46.120Z,7.90
2018-05-12T17:55:15.834Z,8.10
2018-05-12T17:57:45.517Z,8.17
2018-05-12T18:00:15.215Z,7.70
2018-05-12T18:02:45.011Z,6.97
2018-05-12T18:05:14.729Z,7.93
2018-05-12T18:07:44.464Z,7.83
2018-05-12T18:10:14.177Z,8.40
2018-05-12T18:12:43.849Z,7.47
2018-05-12T18:15:13.594Z,7.33
2018-05-12T18:17:43.376Z,7.57
2018-05-12T18:20:13.048Z,7.97
2018-05-12T18:22:42.908Z,7.20
2018-05-12T18:25:12.613Z,7.23
2018-05-12T18:27:42.330Z,8.70
2018-05-12T18:30:12.011Z,8.60
2018-05-12T18:32:41.712Z,8.23
2018-05-12T18:35:11.430Z,8.30
2018-05-12T18:37:41.132Z,8.60
2018-05-12T18:40:10.813Z,8.63
2018-05-12T18:42:40.622Z,9.23
2018-05-12T18:45:10.320Z,9.40
2018-05-12T18:47:40.024Z,9.23
2018-05-12T18:50:09.746Z,9.10
2018-05-12T18:52:39.445Z,10.40
2018-05-12T18:55:09.180Z,9.03
2018-05-12T18:57:38.897Z,9.47
2018-05-12T19:00:08.583Z,9.07
2018-05-12T19:02:38.305Z,9.73
2018-05-12T19:05:07.981Z,9.30
2018-05-12T19:07:37.667Z,10.03
2018-05-12T19:10:07.430Z,8.97
2018-05-12T19:12:37.093Z,10.00
2018-05-12T19:15:06.854Z,9.73
2018-05-12T19:17:36.558Z,9.83
2018-05-12T19:20:06.257Z,9.63
2018-05-12T19:22:35.952Z,9.53
2018-05-12T19:25:05.684Z,9.10
2018-05-12T19:27:35.355Z,9.43
2018-05-12T19:30:05.204Z,10.07
2018-05-12T19:32:34.941Z,9.80
2018-05-12T19:35:04.740Z,9.63
2018-05-12T19:37:34.494Z,10.13
2018-05-12T19:40:04.216Z,10.17
2018-05-12T19:42:33.905Z,10.00
2018-05-12T19:45:03.618Z,9.80
2018-05-12T19:47:33.286Z,9.63
2018-05-12T19:50:03.001Z,9.20
2018-05-12T19:52:32.707Z,10.07
2018-05-12T19:55:02.411Z,9.83
2018-05-12T19:57:32.125Z,8.90
2018-05-12T20:00:01.793Z,9.43
2018-05-12T20:02:31.476Z,10.40
2018-05-12T20:05:01.201Z,11.17
2018-05-12T20:07:30.881Z,11.17
2018-05-12T20:10:00.567Z,11.50
2018-05-12T20:12:30.298Z,11.53
2018-05-12T20:14:59.981Z,11.00
2018-05-12T20:17:29.658Z,10.67
2018-05-12T20:19:59.513Z,11.67
2018-05-12T20:22:29.275Z,11.63
2018-05-12T20:24:59.414Z,11.00
2018-05-12T20:27:29.125Z,10.80
2018-05-12T20:29:58.886Z,10.47
2018-05-12T20:32:28.578Z,10.37
2018-05-12T20:34:58.284Z,10.83
2018-05-12T20:37:28.082Z,10.17
2018-05-12T20:39:58.632Z,9.93
2018-05-12T20:42:28.458Z,10.10
2018-05-12T20:44:58.132Z,9.87
2018-05-12T20:47:27.891Z,10.17
2018-05-12T20:49:57.581Z,9.30
2018-05-12T20:52:27.261Z,9.80
2018-05-12T20:54:56.998Z,9.50
2018-05-12T20:57:26.731Z,9.60
2018-05-12T20:59:56.538Z,9.30
2018-05-12T21:02:26.280Z,9.50
2018-05-12T21:04:56.181Z,9.13
2018-05-12T21:07:25.964Z,9.90
2018-05-12T21:09:55.673Z,9.80
2018-05-12T21:12:25.403Z,10.13
2018-05-12T21:14:55.109Z,9.40
2018-05-12T21:17:24.813Z,10.27
2018-05-12T21:19:54.523Z,9.87
2018-05-12T21:22:24.813Z,9.70
2018-05-12T21:24:54.621Z,8.53
2018-05-12T21:27:24.817Z,9.37
2018-05-12T21:29:54.863Z,9.63
2018-05-12T21:32:25.034Z,8.67
2018-05-12T21:34:54.718Z,8.30
2018-05-12T21:37:24.895Z,8.00
2018-05-12T21:39:54.660Z,6.97
2018-05-12T21:42:24.586Z,7.23
2018-05-12T21:44:54.469Z,7.87
2018-05-12T21:47:24.192Z,7.67
2018-05-12T21:49:53.924Z,8.60
2018-05-12T21:52:23.994Z,7.77
2018-05-12T21:54:54.052Z,7.43
2018-05-12T21:57:23.759Z,8.10
2018-05-12T21:59:54.324Z,7.73
2018-05-12T22:02:24.040Z,7.87
2018-05-12T22:04:53.885Z,8.07
2018-05-12T22:07:23.645Z,6.77
2018-05-12T22:09:53.320Z,7.37
2018-05-12T22:12:23.084Z,7.37
2018-05-12T22:14:52.798Z,7.67
2018-05-12T22:17:23.310Z,7.50
2018-05-12T22:19:53.005Z,7.17
2018-05-12T22:22:23.186Z,6.93
2018-05-12T22:24:53.438Z,6.40
2018-05-12T22:27:23.238Z,6.83
2018-05-12T22:29:52.997Z,6.30
2018-05-12T22:32:22.987Z,6.83
2018-05-12T22:34:52.767Z,6.37
2018-05-12T22:37:22.498Z,6.50
2018-05-12T22:39:52.608Z,6.47
2018-05-12T22:42:22.542Z,6.87
2018-05-12T22:44:52.244Z,6.33
2018-05-12T22:47:22.007Z,6.90
2018-05-12T22:49:51.772Z,6.57
2018-05-12T22:52:22.042Z,6.03
2018-05-12T22:54:51.787Z,6.47
2018-05-12T22:57:21.464Z,6.57
2018-05-12T22:59:51.161Z,6.47
2018-05-12T23:02:20.900Z,6.33
2018-05-12T23:04:50.667Z,6.00
2018-05-12T23:07:20.563Z,6.53
2018-05-12T23:09:50.596Z,5.80
2018-05-12T23:12:20.324Z,5.97
2018-05-12T23:14:50.013Z,6.03
2018-05-12T23:17:19.685Z,5.60
2018-05-12T23:19:49.465Z,5.50
2018-05-12T23:22:20.031Z,6.27
2018-05-12T23:24:49.877Z,6.00
2018-05-12T23:27:19.870Z,6.17
2018-05-12T23:29:49.589Z,5.90
2018-05-12T23:32:19.239Z,5.40
2018-05-12T23:34:49.002Z,5.63
2018-05-12T23:37:18.736Z,5.77
2018-05-12T23:39:48.494Z,5.93
2018-05-12T23:42:18.410Z,5.97
2018-05-12T23:44:48.166Z,6.27
2018-05-12T23:47:17.869Z,5.43
2018-05-12T23:49:47.592Z,5.40
2018-05-12T23:52:17.288Z,5.87
2018-05-12T23:54:46.942Z,5.80
2018-05-12T23:57:16.655Z,5.77
2018-05-12T23:59:46.824Z,6.10
